Time;durP1;ratioP1;P1;durP2;ratioP2;P2;SDS_P1;SDS_P2;PMS_P1;PMS_P2;Temp;Humidity;BMP_temperature;BMP_pressure;BME280_temperature;BME280_humidity;BME280_pressure;Samples;Min_cycle;Max_cycle;Signal;HPM_P1;HPM_P2
2021/09/29 00:00:00;;;;;;;;;;;;;;;;;;5030268;28;19928;-64
2021/09/29 00:02:26;;;;;;;;;;;;;;;;;;5028652;28;19906;-64
2021/09/29 00:04:55;;;;;;;;;;;;;;;;;;5029599;28;19949;-63
2021/09/29 00:07:21;;;;;;;;;;;;;;;;;;5029912;28;19905;-63
2021/09/29 00:09:47;;;;;;;;;;;;;;;;;;5029701;28;19905;-63
2021/09/29 00:12:12;;;;;;;;;;;;;;;;;;5029771;28;19916;-63
2021/09/29 00:14:38;;;;;;;;;;;;;;;;;;5029882;28;19905;-63
2021/09/29 00:17:04;;;;;;;;;;;;;;;;;;5029737;28;19996;-64
2021/09/29 00:19:30;;;;;;;;;;;;;;;;;;5029765;28;20280;-65
2021/09/29 00:21:56;;;;;;;;;;;;;;;;;;5029557;28;20004;-65
2021/09/29 00:24:22;;;;;;;;;;;;;;;;;;5029425;28;19913;-64
2021/09/29 00:26:48;;;;;;;;;;;;;;;;;;5029481;28;19905;-64
2021/09/29 00:29:14;;;;;;;;;;;;;;;;;;5029370;28;19913;-65
2021/09/29 00:31:40;;;;;;;;;;;;;;;;;;5029346;28;19916;-63
2021/09/29 00:34:11;;;;;;;;;;;;;;;;;;5029507;28;20327;-63
2021/09/29 00:36:37;;;;;;;;;;;;;;;;;;5029124;28;19906;-63
2021/09/29 00:39:03;;;;;;;;;;;;;;;;;;5029449;28;19905;-63
2021/09/29 00:41:29;;;;;;;;;;;;;;;;;;5029108;28;19912;-63
2021/09/29 00:43:55;;;;;;;;;;;;;;;;;;5029365;28;20503;-63
2021/09/29 00:46:20;;;;;;;;;;;;;;;;;;5029070;28;19933;-63
2021/09/29 00:48:46;;;;;;;;;;;;;;;;;;5029113;28;19905;-62
2021/09/29 00:51:12;;;;;;;;;;;;;;;;;;5028922;28;19913;-63
2021/09/29 00:53:38;;;;;;;;;;;;;;;;;;5029119;28;20425;-63
2021/09/29 00:56:04;;;;;;;;;;;;;;;;;;5028990;28;19991;-63
2021/09/29 00:58:30;;;;;;;;;;;;;;;;;;5028850;28;19905;-62
2021/09/29 01:00:56;;;;;;;;;;;;;;;;;;5028945;28;19937;-63
2021/09/29 01:03:22;;;;;;;;;;;;;;;;;;5028707;28;19913;-63
2021/09/29 01:05:48;;;;;;;;;;;;;;;;;;5028582;28;19917;-63
2021/09/29 01:08:14;;;;;;;;;;;;;;;;;;5028697;28;19905;-64
2021/09/29 01:10:40;;;;;;;;;;;;;;;;;;5028519;28;19910;-63
2021/09/29 01:13:06;;;;;;;;;;;;;;;;;;5027451;28;19909;-63
2021/09/29 01:15:32;;;;;;;;;;;;;;;;;;5028617;28;19906;-63
2021/09/29 01:17:58;;;;;;;;;;;;;;;;;;5028619;28;19905;-64
2021/09/29 01:20:24;;;;;;;;;;;;;;;;;;5028871;28;19906;-64
2021/09/29 01:22:51;;;;;;;;;;;;;;;;;;5028070;28;19913;-63
2021/09/29 01:25:17;;;;;;;;;;;;;;;;;;5028497;28;20073;-63
2021/09/29 01:27:43;;;;;;;;;;;;;;;;;;5028717;28;19912;-63
2021/09/29 01:30:09;;;;;;;;;;;;;;;;;;5028431;28;19909;-64
2021/09/29 01:32:35;;;;;;;;;;;;;;;;;;5028351;28;19936;-64
2021/09/29 01:35:00;;;;;;;;;;;;;;;;;;5028380;28;19905;-64
2021/09/29 01:37:26;;;;;;;;;;;;;;;;;;5028168;28;19905;-65
2021/09/29 01:39:52;;;;;;;;;;;;;;;;;;5028210;28;19972;-63
2021/09/29 01:42:18;;;;;;;;;;;;;;;;;;5028161;28;19905;-64
2021/09/29 01:44:44;;;;;;;;;;;;;;;;;;5027916;28;20383;-63
2021/09/29 01:47:10;;;;;;;;;;;;;;;;;;5028054;28;19905;-64
2021/09/29 01:49:36;;;;;;;;;;;;;;;;;;5027855;28;19912;-65
2021/09/29 01:52:02;;;;;;;;;;;;;;;;;;5027741;28;19910;-64
2021/09/29 01:54:28;;;;;;;;;;;;;;;;;;5028137;28;19905;-63
2021/09/29 01:56:54;;;;;;;;;;;;;;;;;;5027849;28;19906;-64
2021/09/29 01:59:20;;;;;;;;;;;;;;;;;;5027956;28;19912;-63
2021/09/29 02:01:46;;;;;;;;;;;;;;;;;;5028110;28;19906;-65
2021/09/29 02:04:12;;;;;;;;;;;;;;;;;;5026156;28;20292;-63
2021/09/29 02:06:38;;;;;;;;;;;;;;;;;;5027497;28;19912;-64
2021/09/29 02:09:04;;;;;;;;;;;;;;;;;;5027823;28;20392;-64
2021/09/29 02:11:29;;;;;;;;;;;;;;;;;;5027537;28;19909;-65
2021/09/29 02:13:55;;;;;;;;;;;;;;;;;;5027606;28;19980;-64
2021/09/29 02:16:21;;;;;;;;;;;;;;;;;;5027552;28;19906;-64
2021/09/29 02:18:47;;;;;;;;;;;;;;;;;;5027420;28;19905;-63
2021/09/29 02:21:13;;;;;;;;;;;;;;;;;;5027455;28;20008;-64
2021/09/29 02:23:39;;;;;;;;;;;;;;;;;;5027246;28;19905;-65
2021/09/29 02:26:05;;;;;;;;;;;;;;;;;;5027311;28;20399;-64
2021/09/29 02:28:31;;;;;;;;;;;;;;;;;;5027247;28;19906;-63
2021/09/29 02:30:57;;;;;;;;;;;;;;;;;;5027146;28;19932;-64
2021/09/29 02:33:23;;;;;;;;;;;;;;;;;;5027304;28;19981;-63
2021/09/29 02:35:49;;;;;;;;;;;;;;;;;;5026308;28;19906;-63
2021/09/29 02:38:14;;;;;;;;;;;;;;;;;;5027220;28;19905;-64
2021/09/29 02:40:40;;;;;;;;;;;;;;;;;;5027074;28;19973;-64
2021/09/29 02:43:07;;;;;;;;;;;;;;;;;;5027121;28;19909;-64
2021/09/29 02:45:32;;;;;;;;;;;;;;;;;;5027333;28;19912;-64
2021/09/29 02:47:58;;;;;;;;;;;;;;;;;;5027109;28;19931;-66
2021/09/29 02:50:24;;;;;;;;;;;;;;;;;;5027021;28;19932;-64
2021/09/29 02:52:50;;;;;;;;;;;;;;;;;;5027048;28;19972;-64
2021/09/29 02:55:16;;;;;;;;;;;;;;;;;;5026947;28;19912;-63
2021/09/29 02:57:42;;;;;;;;;;;;;;;;;;5026982;28;19947;-63
2021/09/29 03:00:08;;;;;;;;;;;;;;;;;;5027228;28;19912;-63
2021/09/29 03:02:34;;;;;;;;;;;;;;;;;;5027224;28;19906;-63
2021/09/29 03:05:00;;;;;;;;;;;;;;;;;;5026875;28;20008;-63
2021/09/29 03:07:28;;;;;;;;;;;;;;;;;;5026883;28;20004;-63
2021/09/29 03:09:54;;;;;;;;;;;;;;;;;;5026782;28;19913;-63
2021/09/29 03:12:20;;;;;;;;;;;;;;;;;;5026795;28;19906;-63
2021/09/29 03:14:46;;;;;;;;;;;;;;;;;;5026850;28;19905;-63
2021/09/29 03:17:12;;;;;;;;;;;;;;;;;;5026759;28;19915;-64
2021/09/29 03:19:38;;;;;;;;;;;;;;;;;;5026710;28;19948;-65
2021/09/29 03:22:04;;;;;;;;;;;;;;;;;;5026750;28;19905;-64
2021/09/29 03:24:30;;;;;;;;;;;;;;;;;;5026675;28;19906;-63
2021/09/29 03:26:56;;;;;;;;;;;;;;;;;;5026635;28;19916;-63
2021/09/29 03:29:22;;;;;;;;;;;;;;;;;;5026708;28;19905;-63
2021/09/29 03:31:47;;;;;;;;;;;;;;;;;;5026512;28;19916;-63
2021/09/29 03:34:13;;;;;;;;;;;;;;;;;;5026704;28;19913;-65
2021/09/29 03:36:39;;;;;;;;;;;;;;;;;;5026659;28;19905;-63
2021/09/29 03:39:05;;;;;;;;;;;;;;;;;;5026675;28;20008;-63
2021/09/29 03:41:31;;;;;;;;;;;;;;;;;;5026658;28;20253;-64
2021/09/29 03:43:57;;;;;;;;;;;;;;;;;;5026690;28;19906;-63
2021/09/29 03:46:23;;;;;;;;;;;;;;;;;;5027382;28;19905;-62
2021/09/29 03:48:49;;;;;;;;;;;;;;;;;;5030075;28;19913;-63
2021/09/29 03:51:15;;;;;;;;;;;;;;;;;;5030334;28;20313;-63
2021/09/29 03:53:41;;;;;;;;;;;;;;;;;;5029945;28;19928;-63
2021/09/29 03:56:07;;;;;;;;;;;;;;;;;;5030050;28;19906;-63
2021/09/29 03:58:33;;;;;;;;;;;;;;;;;;5029982;28;20435;-63
2021/09/29 04:01:04;;;;;;;;;;;;;;;;;;5030346;28;19951;-63
2021/09/29 04:03:30;;;;;;;;;;;;;;;;;;5030110;28;19911;-63
2021/09/29 04:05:56;;;;;;;;;;;;;;;;;;5029702;28;19948;-62
2021/09/29 04:08:22;;;;;;;;;;;;;;;;;;5030338;28;19928;-63
2021/09/29 04:10:48;;;;;;;;;;;;;;;;;;5030233;28;19910;-63
2021/09/29 04:13:14;;;;;;;;;;;;;;;;;;5030128;28;19912;-65
2021/09/29 04:15:40;;;;;;;;;;;;;;;;;;5030011;28;19911;-63
2021/09/29 04:18:06;;;;;;;;;;;;;;;;;;5029629;28;19905;-63
2021/09/29 04:20:32;;;;;;;;;;;;;;;;;;5029970;28;19958;-63
2021/09/29 04:22:58;;;;;;;;;;;;;;;;;;5029669;28;19973;-64
2021/09/29 04:25:24;;;;;;;;;;;;;;;;;;5029622;28;19905;-64
2021/09/29 04:27:50;;;;;;;;;;;;;;;;;;5029452;28;19905;-63
2021/09/29 04:30:15;;;;;;;;;;;;;;;;;;5029333;28;19989;-63
2021/09/29 04:32:41;;;;;;;;;;;;;;;;;;5029745;28;19972;-62
2021/09/29 04:35:07;;;;;;;;;;;;;;;;;;5029770;28;19966;-63
2021/09/29 04:37:33;;;;;;;;;;;;;;;;;;5031772;28;19905;-65
2021/09/29 04:39:59;;;;;;;;;;;;;;;;;;5031345;28;19906;-63
2021/09/29 04:42:25;;;;;;;;;;;;;;;;;;5030949;28;19916;-63
2021/09/29 04:44:51;;;;;;;;;;;;;;;;;;5030864;28;19905;-64
2021/09/29 04:47:17;;;;;;;;;;;;;;;;;;5030669;28;19952;-64
2021/09/29 04:49:43;;;;;;;;;;;;;;;;;;5029466;28;19912;-64
2021/09/29 04:52:09;;;;;;;;;;;;;;;;;;5029433;28;19910;-67
2021/09/29 04:54:35;;;;;;;;;;;;;;;;;;5028983;28;19977;-63
2021/09/29 04:57:00;;;;;;;;;;;;;;;;;;5029090;28;19906;-63
2021/09/29 04:59:26;;;;;;;;;;;;;;;;;;5028011;28;20016;-64
2021/09/29 05:01:53;;;;;;;;;;;;;;;;;;5028924;28;19905;-65
2021/09/29 05:04:23;;;;;;;;;;;;;;;;;;5028323;28;19918;-65
2021/09/29 05:06:49;;;;;;;;;;;;;;;;;;5028797;28;19906;-63
2021/09/29 05:09:15;;;;;;;;;;;;;;;;;;5028567;28;19964;-63
2021/09/29 05:11:41;;;;;;;;;;;;;;;;;;5028640;28;19910;-63
2021/09/29 05:14:07;;;;;;;;;;;;;;;;;;5028422;28;19912;-63
2021/09/29 05:16:33;;;;;;;;;;;;;;;;;;5028871;28;19906;-63
2021/09/29 05:18:59;;;;;;;;;;;;;;;;;;5028161;28;19911;-67
2021/09/29 05:21:25;;;;;;;;;;;;;;;;;;5028303;28;19937;-64
2021/09/29 05:23:51;;;;;;;;;;;;;;;;;;5028420;28;19964;-63
2021/09/29 05:26:17;;;;;;;;;;;;;;;;;;5028232;28;19905;-63
2021/09/29 05:28:43;;;;;;;;;;;;;;;;;;5028386;28;19906;-63
2021/09/29 05:31:09;;;;;;;;;;;;;;;;;;5027925;28;19916;-63
2021/09/29 05:33:35;;;;;;;;;;;;;;;;;;5027928;28;19924;-64
2021/09/29 05:36:01;;;;;;;;;;;;;;;;;;5028029;28;19912;-65
2021/09/29 05:38:27;;;;;;;;;;;;;;;;;;5028045;28;19906;-65
2021/09/29 05:40:53;;;;;;;;;;;;;;;;;;5027872;28;19935;-65
2021/09/29 05:43:19;;;;;;;;;;;;;;;;;;5027955;28;19912;-65
2021/09/29 05:45:45;;;;;;;;;;;;;;;;;;5026727;28;19905;-64
2021/09/29 05:48:11;;;;;;;;;;;;;;;;;;5027916;28;19905;-65
2021/09/29 05:50:37;;;;;;;;;;;;;;;;;;5027980;28;20277;-66
2021/09/29 05:53:03;;;;;;;;;;;;;;;;;;5027901;28;20004;-64
2021/09/29 05:55:28;;;;;;;;;;;;;;;;;;5027835;28;19905;-66
2021/09/29 05:57:54;;;;;;;;;;;;;;;;;;5027699;28;19909;-64
2021/09/29 06:00:20;;;;;;;;;;;;;;;;;;5028166;28;19905;-63
2021/09/29 06:02:46;;;;;;;;;;;;;;;;;;5027536;28;19905;-63
2021/09/29 06:05:12;;;;;;;;;;;;;;;;;;5027879;28;19921;-63
2021/09/29 06:07:38;;;;;;;;;;;;;;;;;;5027521;28;19905;-64
2021/09/29 06:10:04;;;;;;;;;;;;;;;;;;5027174;28;19906;-63
2021/09/29 06:12:30;;;;;;;;;;;;;;;;;;5026574;28;19912;-66
2021/09/29 06:14:56;;;;;;;;;;;;;;;;;;5027739;28;19909;-63
2021/09/29 06:17:27;;;;;;;;;;;;;;;;;;5027348;28;19909;-64
2021/09/29 06:19:53;;;;;;;;;;;;;;;;;;5027770;28;19913;-63
2021/09/29 06:22:18;;;;;;;;;;;;;;;;;;5026240;28;19905;-64
2021/09/29 06:24:44;;;;;;;;;;;;;;;;;;5027711;28;19905;-64
2021/09/29 06:27:10;;;;;;;;;;;;;;;;;;5027263;28;19905;-64
2021/09/29 06:29:36;;;;;;;;;;;;;;;;;;5027182;28;19905;-64
2021/09/29 06:32:02;;;;;;;;;;;;;;;;;;5027082;28;19909;-64
2021/09/29 06:34:28;;;;;;;;;;;;;;;;;;5026901;28;19956;-63
2021/09/29 06:36:54;;;;;;;;;;;;;;;;;;5026934;28;19906;-65
2021/09/29 06:39:20;;;;;;;;;;;;;;;;;;5027521;28;19912;-64
2021/09/29 06:41:46;;;;;;;;;;;;;;;;;;5027135;28;19912;-64
2021/09/29 06:44:12;;;;;;;;;;;;;;;;;;5026950;28;20265;-63
2021/09/29 06:46:38;;;;;;;;;;;;;;;;;;5027340;28;19905;-63
2021/09/29 06:49:04;;;;;;;;;;;;;;;;;;5027087;28;19906;-64
2021/09/29 06:51:30;;;;;;;;;;;;;;;;;;5027164;28;19909;-64
2021/09/29 06:53:56;;;;;;;;;;;;;;;;;;5026983;28;19932;-64
2021/09/29 06:56:25;;;;;;;;;;;;;;;;;;5026757;28;19955;-64
2021/09/29 06:58:52;;;;;;;;;;;;;;;;;;5026474;28;19932;-63
2021/09/29 07:01:18;;;;;;;;;;;;;;;;;;5027155;28;19906;-63
2021/09/29 07:03:44;;;;;;;;;;;;;;;;;;5026768;28;20016;-63
2021/09/29 07:06:10;;;;;;;;;;;;;;;;;;5027028;28;19905;-63
2021/09/29 07:08:36;;;;;;;;;;;;;;;;;;5026930;28;19956;-63
2021/09/29 07:11:02;;;;;;;;;;;;;;;;;;5026890;28;20378;-63
2021/09/29 07:13:28;;;;;;;;;;;;;;;;;;5027028;28;19951;-63
2021/09/29 07:15:56;;;;;;;;;;;;;;;;;;5025991;28;19968;-65
2021/09/29 07:18:27;;;;;;;;;;;;;;;;;;5026583;28;19912;-64
2021/09/29 07:20:53;;;;;;;;;;;;;;;;;;5026882;28;20395;-63
2021/09/29 07:23:19;;;;;;;;;;;;;;;;;;5030465;28;19906;-65
2021/09/29 07:25:45;;;;;;;;;;;;;;;;;;5030545;28;19939;-63
2021/09/29 07:28:11;;;;;;;;;;;;;;;;;;5030888;28;19940;-63
2021/09/29 07:30:38;;;;;;;;;;;;;;;;;;5030365;28;19909;-63
2021/09/29 07:33:04;;;;;;;;;;;;;;;;;;5030600;28;19931;-62
2021/09/29 07:35:30;;;;;;;;;;;;;;;;;;5030592;28;19929;-63
2021/09/29 07:37:59;;;;;;;;;;;;;;;;;;5030288;28;19905;-65
2021/09/29 07:40:25;;;;;;;;;;;;;;;;;;5030851;28;19929;-64
2021/09/29 07:42:55;;;;;;;;;;;;;;;;;;5029082;28;19905;-67
2021/09/29 07:45:21;;;;;;;;;;;;;;;;;;5030375;28;20395;-63
2021/09/29 07:47:47;;;;;;;;;;;;;;;;;;5030270;28;19905;-64
2021/09/29 07:50:15;;;;;;;;;;;;;;;;;;5029970;28;19917;-65
2021/09/29 07:52:41;;;;;;;;;;;;;;;;;;5030363;28;19973;-63
2021/09/29 07:55:07;;;;;;;;;;;;;;;;;;5030275;28;19935;-64
2021/09/29 07:57:33;;;;;;;;;;;;;;;;;;5029933;28;19905;-63
2021/09/29 07:59:59;;;;;;;;;;;;;;;;;;5030416;28;19919;-63
2021/09/29 08:02:26;;;;;;;;;;;;;;;;;;5028684;28;20011;-63
2021/09/29 08:04:52;;;;;;;;;;;;;;;;;;5029867;28;19917;-63
2021/09/29 08:07:18;;;;;;;;;;;;;;;;;;5030365;28;19928;-66
2021/09/29 08:09:47;;;;;;;;;;;;;;;;;;5030157;28;19912;-65
2021/09/29 08:12:13;;;;;;;;;;;;;;;;;;5029743;28;19995;-64
2021/09/29 08:14:42;;;;;;;;;;;;;;;;;;5029738;28;20360;-63
2021/09/29 08:17:08;;;;;;;;;;;;;;;;;;5030016;28;20368;-64
2021/09/29 08:19:34;;;;;;;;;;;;;;;;;;5029931;28;19906;-63
2021/09/29 08:22:03;;;;;;;;;;;;;;;;;;5029954;28;19913;-69
2021/09/29 08:24:38;;;;;;;;;;;;;;;;;;5029565;28;19905;-63
2021/09/29 08:27:30;;;;;;;;;;;;;;;;;;5030427;28;19909;-64
2021/09/29 08:30:12;;;;;;;;;;;;;;;;;;5029276;28;19909;-64
2021/09/29 08:37:53;;;;;;;;;;;;;;;;;;5029427;28;19944;-64
2021/09/29 08:45:20;;;;;;;;;;;;;;;;;;5029031;28;19905;-64
2021/09/29 08:50:56;;;;;;;;;;;;;;;;;;5029432;28;19956;-66
2021/09/29 09:17:12;;;;;;;;;;;;;;;;;;5028596;28;19909;-63
2021/09/29 09:19:38;;;;;;;;;;;;;;;;;;5028406;28;19913;-64
2021/09/29 09:22:04;;;;;;;;;;;;;;;;;;5028270;28;19912;-64
2021/09/29 09:24:30;;;;;;;;;;;;;;;;;;5028155;28;19905;-67
2021/09/29 09:26:55;;;;;;;;;;;;;;;;;;5028217;28;19909;-64
2021/09/29 09:29:21;;;;;;;;;;;;;;;;;;5028216;28;19977;-66
2021/09/29 09:31:47;;;;;;;;;;;;;;;;;;5028032;28;19917;-65
2021/09/29 09:34:13;;;;;;;;;;;;;;;;;;5028368;28;19906;-65
2021/09/29 09:36:39;;;;;;;;;;;;;;;;;;5026984;28;19928;-64
2021/09/29 09:39:05;;;;;;;;;;;;;;;;;;5028034;28;19917;-64
2021/09/29 09:41:31;;;;;;;;;;;;;;;;;;5028157;28;19952;-65
2021/09/29 09:43:57;;;;;;;;;;;;;;;;;;5027473;28;19905;-64
2021/09/29 09:46:24;;;;;;;;;;;;;;;;;;5027990;28;19905;-65
2021/09/29 09:48:50;;;;;;;;;;;;;;;;;;5028044;28;20283;-64
2021/09/29 09:51:18;;;;;;;;;;;;;;;;;;5028016;28;19913;-64
2021/09/29 09:53:44;;;;;;;;;;;;;;;;;;5027661;28;20353;-64
2021/09/29 09:56:10;;;;;;;;;;;;;;;;;;5027682;28;20052;-64
2021/09/29 09:58:36;;;;;;;;;;;;;;;;;;5027615;28;19943;-64
2021/09/29 10:01:02;;;;;;;;;;;;;;;;;;5027558;28;19906;-64
2021/09/29 10:03:28;;;;;;;;;;;;;;;;;;5027420;28;19913;-64
2021/09/29 10:05:54;;;;;;;;;;;;;;;;;;5027473;28;19924;-64
2021/09/29 10:08:25;;;;;;;;;;;;;;;;;;5027385;28;19973;-64
2021/09/29 10:11:05;;;;;;;;;;;;;;;;;;5027475;28;19932;-64
2021/09/29 10:24:11;;;;;;;;;;;;;;;;;;5027228;28;19928;-64
2021/09/29 10:26:37;;;;;;;;;;;;;;;;;;5025777;28;19912;-65
2021/09/29 10:29:03;;;;;;;;;;;;;;;;;;5025724;28;20342;-70
2021/09/29 10:34:06;;;;;;;;;;;;;;;;;;5027559;28;19929;-68
2021/09/29 10:44:29;;;;;;;;;;;;;;;;;;5027109;28;20034;-67
2021/09/29 10:47:09;;;;;;;;;;;;;;;;;;5027094;28;19971;-68
2021/09/29 11:08:11;;;;;;;;;;;;;;;;;;5031093;28;19905;-66
2021/09/29 11:30:17;;;;;;;;;;;;;;;;;;4993076;28;19913;-64
2021/09/29 11:33:00;;;;;;;;;;;;;;;;;;5029479;28;19912;-67
2021/09/29 11:49:25;;;;;;;;;;;;;;;;;;5029227;28;20354;-65
2021/09/29 12:08:19;;;;;;;;;;;;;;;;;;5028096;28;19959;-73
2021/09/29 12:10:45;;;;;;;;;;;;;;;;;;5029439;28;19959;-65
2021/09/29 12:13:11;;;;;;;;;;;;;;;;;;5029360;28;19905;-65
2021/09/29 12:15:37;;;;;;;;;;;;;;;;;;5029181;28;20360;-65
2021/09/29 12:18:03;;;;;;;;;;;;;;;;;;5029212;28;19906;-69
2021/09/29 12:20:29;;;;;;;;;;;;;;;;;;5029454;28;19906;-66
2021/09/29 12:22:55;;;;;;;;;;;;;;;;;;5029367;28;20078;-65
2021/09/29 12:25:21;;;;;;;;;;;;;;;;;;5028882;28;19906;-72
2021/09/29 12:27:51;;;;;;;;;;;;;;;;;;5028799;28;19912;-72
2021/09/29 12:30:40;;;;;;;;;;;;;;;;;;5028927;28;19946;-65
2021/09/29 12:35:52;;;;;;;;;;;;;;;;;;5021909;28;19928;-78
2021/09/29 12:38:18;;;;;;;;;;;;;;;;;;5020907;28;19948;-70
2021/09/29 12:40:44;;;;;;;;;;;;;;;;;;5028322;28;19905;-69
2021/09/29 12:43:09;;;;;;;;;;;;;;;;;;5027508;28;19905;-67
2021/09/29 12:45:35;;;;;;;;;;;;;;;;;;5027619;28;19932;-65
2021/09/29 12:48:01;;;;;;;;;;;;;;;;;;5027673;28;20364;-71
2021/09/29 12:50:41;;;;;;;;;;;;;;;;;;5020601;28;19909;-71
2021/09/29 12:55:46;;;;;;;;;;;;;;;;;;5020587;28;19906;-74
2021/09/29 12:58:12;;;;;;;;;;;;;;;;;;5020644;28;19910;-72
2021/09/29 13:00:38;;;;;;;;;;;;;;;;;;5020002;28;19905;-75
2021/09/29 13:03:05;;;;;;;;;;;;;;;;;;5022252;28;19913;-70
2021/09/29 13:05:31;;;;;;;;;;;;;;;;;;5027065;28;19940;-65
2021/09/29 13:07:57;;;;;;;;;;;;;;;;;;5026750;28;19940;-73
2021/09/29 13:10:23;;;;;;;;;;;;;;;;;;5027209;28;19909;-65
2021/09/29 13:12:52;;;;;;;;;;;;;;;;;;5027022;28;19905;-65
2021/09/29 13:15:18;;;;;;;;;;;;;;;;;;5027094;28;20010;-65
2021/09/29 13:17:46;;;;;;;;;;;;;;;;;;5027340;28;19905;-68
2021/09/29 13:20:16;;;;;;;;;;;;;;;;;;5026740;28;20048;-64
2021/09/29 13:22:45;;;;;;;;;;;;;;;;;;5027926;28;19905;-65
2021/09/29 13:25:31;;;;;;;;;;;;;;;;;;5027481;28;19906;-66
2021/09/29 13:38:56;;;;;;;;;;;;;;;;;;5019793;28;20284;-74
2021/09/29 13:41:22;;;;;;;;;;;;;;;;;;5024116;28;19906;-64
2021/09/29 13:43:48;;;;;;;;;;;;;;;;;;5027398;28;19991;-65
2021/09/29 13:46:14;;;;;;;;;;;;;;;;;;5026592;28;19912;-69
2021/09/29 13:48:40;;;;;;;;;;;;;;;;;;5026381;28;19997;-69
2021/09/29 13:51:06;;;;;;;;;;;;;;;;;;5026882;28;19914;-65
2021/09/29 13:53:32;;;;;;;;;;;;;;;;;;5026115;28;19969;-65
2021/09/29 13:56:01;;;;;;;;;;;;;;;;;;5027537;28;20077;-65
2021/09/29 14:14:59;;;;;;;;;;;;;;;;;;5018703;28;20326;-76
2021/09/29 14:28:39;;;;;;;;;;;;;;;;;;5017595;28;19936;-74
2021/09/29 14:31:10;;;;;;;;;;;;;;;;;;5019355;28;19916;-73
2021/09/29 14:33:44;;;;;;;;;;;;;;;;;;5025506;28;19933;-65
2021/09/29 14:36:10;;;;;;;;;;;;;;;;;;5026689;28;19912;-66
2021/09/29 14:38:36;;;;;;;;;;;;;;;;;;5027086;28;19956;-68
2021/09/29 14:41:02;;;;;;;;;;;;;;;;;;5027073;28;19905;-64
2021/09/29 14:43:28;;;;;;;;;;;;;;;;;;5026770;28;19912;-64
2021/09/29 14:45:54;;;;;;;;;;;;;;;;;;5027194;28;19905;-65
2021/09/29 14:48:20;;;;;;;;;;;;;;;;;;5026844;28;19927;-64
2021/09/29 14:50:49;;;;;;;;;;;;;;;;;;5026895;28;20543;-65
2021/09/29 14:53:15;;;;;;;;;;;;;;;;;;5026849;28;19909;-65
2021/09/29 14:55:41;;;;;;;;;;;;;;;;;;5026866;28;20276;-64
2021/09/29 14:58:08;;;;;;;;;;;;;;;;;;5026433;28;19906;-69
2021/09/29 15:00:34;;;;;;;;;;;;;;;;;;5026357;28;19905;-64
2021/09/29 15:03:00;;;;;;;;;;;;;;;;;;5026600;28;19905;-68
2021/09/29 15:05:26;;;;;;;;;;;;;;;;;;5026449;28;19921;-64
2021/09/29 15:07:52;;;;;;;;;;;;;;;;;;5027076;28;20452;-65
2021/09/29 15:10:18;;;;;;;;;;;;;;;;;;5025798;28;19980;-64
2021/09/29 15:12:43;;;;;;;;;;;;;;;;;;5026815;28;19976;-66
2021/09/29 15:17:51;;;;;;;;;;;;;;;;;;5027014;28;19912;-65
2021/09/29 15:52:17;;;;;;;;;;;;;;;;;;5029014;28;19999;-72
2021/09/29 15:55:31;;;;;;;;;;;;;;;;;;5029820;28;19936;-66
2021/09/29 15:58:23;;;;;;;;;;;;;;;;;;5024204;28;19905;-67
2021/09/29 16:10:53;;;;;;;;;;;;;;;;;;5029652;28;19909;-65
2021/09/29 16:14:10;;;;;;;;;;;;;;;;;;5029881;28;19912;-66
2021/09/29 16:32:20;;;;;;;;;;;;;;;;;;5029706;28;19917;-65
2021/09/29 16:35:00;;;;;;;;;;;;;;;;;;5029614;28;19909;-65
2021/09/29 16:37:26;;;;;;;;;;;;;;;;;;5029521;28;19915;-65
2021/09/29 16:39:52;;;;;;;;;;;;;;;;;;5029094;28;20004;-65
2021/09/29 16:42:18;;;;;;;;;;;;;;;;;;5029054;28;19906;-68
2021/09/29 16:44:47;;;;;;;;;;;;;;;;;;5029163;28;19913;-65
2021/09/29 16:47:13;;;;;;;;;;;;;;;;;;5028876;28;19905;-66
2021/09/29 16:49:40;;;;;;;;;;;;;;;;;;5028965;28;19905;-65
2021/09/29 16:54:32;;;;;;;;;;;;;;;;;;5027695;28;19906;-65
2021/09/29 16:56:58;;;;;;;;;;;;;;;;;;5028753;28;19912;-69
2021/09/29 17:01:56;;;;;;;;;;;;;;;;;;5028519;28;19906;-67
2021/09/29 17:04:25;;;;;;;;;;;;;;;;;;5028842;28;19919;-67
2021/09/29 17:06:51;;;;;;;;;;;;;;;;;;5015953;28;19932;-67
2021/09/29 17:09:17;;;;;;;;;;;;;;;;;;5009076;28;19909;-68
2021/09/29 17:11:43;;;;;;;;;;;;;;;;;;5009082;28;19909;-66
2021/09/29 17:14:09;;;;;;;;;;;;;;;;;;5008743;28;19905;-67
2021/09/29 17:16:35;;;;;;;;;;;;;;;;;;5008780;28;19906;-66
2021/09/29 17:19:04;;;;;;;;;;;;;;;;;;5008735;28;19992;-67
2021/09/29 17:21:30;;;;;;;;;;;;;;;;;;5008913;28;19941;-67
2021/09/29 17:23:57;;;;;;;;;;;;;;;;;;5008668;28;19914;-66
2021/09/29 17:26:23;;;;;;;;;;;;;;;;;;5008985;28;19914;-66
2021/09/29 17:28:54;;;;;;;;;;;;;;;;;;5008575;28;19977;-67
2021/09/29 17:31:30;;;;;;;;;;;;;;;;;;5008714;28;19909;-70
2021/09/29 17:39:37;;;;;;;;;;;;;;;;;;5008582;28;20057;-67
2021/09/29 17:53:03;;;;;;;;;;;;;;;;;;5008469;28;19913;-67
2021/09/29 17:55:29;;;;;;;;;;;;;;;;;;5008216;28;19972;-66
2021/09/29 17:57:55;;;;;;;;;;;;;;;;;;5008282;28;19913;-66
2021/09/29 18:00:21;;;;;;;;;;;;;;;;;;5007949;28;19906;-72
2021/09/29 18:03:08;;;;;;;;;;;;;;;;;;5007932;28;19941;-66
2021/09/29 18:05:40;;;;;;;;;;;;;;;;;;5006010;28;19918;-67
2021/09/29 18:08:06;;;;;;;;;;;;;;;;;;5008086;28;19910;-69
2021/09/29 18:10:32;;;;;;;;;;;;;;;;;;5007830;28;19910;-66
2021/09/29 18:12:59;;;;;;;;;;;;;;;;;;5007852;28;19906;-69
2021/09/29 18:15:25;;;;;;;;;;;;;;;;;;5007619;28;20365;-66
2021/09/29 18:17:51;;;;;;;;;;;;;;;;;;5007904;28;19912;-67
2021/09/29 18:20:17;;;;;;;;;;;;;;;;;;5007525;28;19981;-70
2021/09/29 18:22:42;;;;;;;;;;;;;;;;;;5007753;28;19906;-69
2021/09/29 18:25:08;;;;;;;;;;;;;;;;;;5007495;28;19905;-66
2021/09/29 18:27:36;;;;;;;;;;;;;;;;;;5007696;28;20365;-66
2021/09/29 18:30:02;;;;;;;;;;;;;;;;;;5007757;28;19938;-66
2021/09/29 18:32:28;;;;;;;;;;;;;;;;;;5007696;28;19942;-66
2021/09/29 18:34:56;;;;;;;;;;;;;;;;;;5006409;28;19928;-66
2021/09/29 18:37:24;;;;;;;;;;;;;;;;;;5007612;28;19906;-66
2021/09/29 18:39:51;;;;;;;;;;;;;;;;;;5007438;28;19929;-65
2021/09/29 18:42:18;;;;;;;;;;;;;;;;;;5007629;28;19905;-66
2021/09/29 18:44:44;;;;;;;;;;;;;;;;;;5007498;28;19913;-67
2021/09/29 18:47:10;;;;;;;;;;;;;;;;;;5007390;28;20368;-67
2021/09/29 18:49:36;;;;;;;;;;;;;;;;;;5007537;28;19916;-66
2021/09/29 18:52:02;;;;;;;;;;;;;;;;;;5008428;28;19913;-67
2021/09/29 18:54:46;;;;;;;;;;;;;;;;;;5008275;28;19944;-67
2021/09/29 18:57:23;;;;;;;;;;;;;;;;;;5007721;28;19909;-67
2021/09/29 19:08:07;;;;;;;;;;;;;;;;;;5007599;28;20407;-67
2021/09/29 19:10:35;;;;;;;;;;;;;;;;;;5007328;28;19916;-67
2021/09/29 19:13:01;;;;;;;;;;;;;;;;;;5007459;28;19906;-66
2021/09/29 19:15:26;;;;;;;;;;;;;;;;;;5006398;28;20491;-66
2021/09/29 19:17:52;;;;;;;;;;;;;;;;;;5008733;28;19912;-65
2021/09/29 19:20:18;;;;;;;;;;;;;;;;;;5011041;28;19941;-65
2021/09/29 19:22:44;;;;;;;;;;;;;;;;;;5011010;28;19905;-65
2021/09/29 19:25:10;;;;;;;;;;;;;;;;;;5010900;28;19906;-67
2021/09/29 19:27:41;;;;;;;;;;;;;;;;;;5010796;28;19968;-66
2021/09/29 19:30:07;;;;;;;;;;;;;;;;;;5009688;28;19912;-64
2021/09/29 19:32:35;;;;;;;;;;;;;;;;;;5010790;28;19910;-66
2021/09/29 19:35:01;;;;;;;;;;;;;;;;;;5010928;28;19913;-64
2021/09/29 19:37:27;;;;;;;;;;;;;;;;;;5010811;28;19914;-64
2021/09/29 19:39:53;;;;;;;;;;;;;;;;;;5011805;28;19906;-65
2021/09/29 19:42:19;;;;;;;;;;;;;;;;;;5012090;28;19996;-65
2021/09/29 19:44:45;;;;;;;;;;;;;;;;;;5011736;28;19913;-64
2021/09/29 20:08:52;;;;;;;;;;;;;;;;;;5010420;28;19984;-64
2021/09/29 20:11:18;;;;;;;;;;;;;;;;;;5010077;28;19909;-67
2021/09/29 20:13:44;;;;;;;;;;;;;;;;;;5009980;28;20343;-64
2021/09/29 20:16:10;;;;;;;;;;;;;;;;;;5010116;28;19905;-64
2021/09/29 20:18:40;;;;;;;;;;;;;;;;;;5009947;28;19986;-66
2021/09/29 20:21:05;;;;;;;;;;;;;;;;;;5009967;28;19956;-71
2021/09/29 20:23:31;;;;;;;;;;;;;;;;;;5010522;28;19905;-64
2021/09/29 20:25:57;;;;;;;;;;;;;;;;;;5010019;28;20365;-65
2021/09/29 20:28:23;;;;;;;;;;;;;;;;;;5009752;28;19910;-65
2021/09/29 20:30:52;;;;;;;;;;;;;;;;;;5009720;28;19909;-69
2021/09/29 20:43:57;;;;;;;;;;;;;;;;;;5010005;28;19927;-64
2021/09/29 20:46:23;;;;;;;;;;;;;;;;;;5009353;28;20357;-65
2021/09/29 20:48:49;;;;;;;;;;;;;;;;;;5009503;28;19909;-66
2021/09/29 20:51:15;;;;;;;;;;;;;;;;;;5009619;28;19910;-66
2021/09/29 20:53:41;;;;;;;;;;;;;;;;;;5009622;28;19905;-67
2021/09/29 20:56:10;;;;;;;;;;;;;;;;;;5009497;28;19928;-66
2021/09/29 20:58:36;;;;;;;;;;;;;;;;;;5009648;28;19932;-66
2021/09/29 21:01:02;;;;;;;;;;;;;;;;;;5009385;28;20345;-66
2021/09/29 21:03:28;;;;;;;;;;;;;;;;;;5009217;28;19969;-65
2021/09/29 21:05:54;;;;;;;;;;;;;;;;;;5009373;28;20317;-65
2021/09/29 21:08:28;;;;;;;;;;;;;;;;;;5009213;28;19909;-63
2021/09/29 21:10:59;;;;;;;;;;;;;;;;;;5009684;28;20056;-68
2021/09/29 21:13:31;;;;;;;;;;;;;;;;;;5009371;28;19959;-67
2021/09/29 21:18:32;;;;;;;;;;;;;;;;;;5009316;28;19913;-67
2021/09/29 21:20:58;;;;;;;;;;;;;;;;;;5008894;28;19909;-63
2021/09/29 21:23:24;;;;;;;;;;;;;;;;;;5009114;28;19920;-65
2021/09/29 21:25:50;;;;;;;;;;;;;;;;;;5008957;28;19933;-66
2021/09/29 21:28:17;;;;;;;;;;;;;;;;;;5008670;28;19910;-66
2021/09/29 21:30:44;;;;;;;;;;;;;;;;;;5008508;28;20475;-64
2021/09/29 21:33:10;;;;;;;;;;;;;;;;;;5008604;28;20376;-65
2021/09/29 21:35:36;;;;;;;;;;;;;;;;;;5008851;28;19921;-65
2021/09/29 22:24:05;;;;;;;;;;;;;;;;;;5007018;28;20344;-65
2021/09/29 22:54:08;;;;;;;;;;;;;;;;;;5006430;28;19957;-65